Flight Track Log - Related Links

Times and Time Zones

All times are in EDT time to prevent confusion due to time zone crossing. See the JBU231 flight status page for this flight to view local times or setup timezone preferences in your user account.

Time Position Orientation Groundspeed Altitude Reporting Facility
EDT Latitude Longitude Course Direction KTS MPH feet Rate Location/Type
Wed 01:52:39 PM 40.7692 -111.9639 151° Southeast 153 176 5,000  Level Salt Lake Center
Wed 01:53:04 PM 40.7494 -111.9619 176° South 163 188 6,100 1,694 Climbing Salt Lake Center
Wed 01:54:04 PM 40.6911 -111.9619 180° South 214 246 7,400 1,452 Climbing Salt Lake Center
Wed 01:54:06 PM 40.6872 -111.9592 152° Southeast 227 261 7,600 3,148 Climbing Salt Lake Center
Wed 01:55:05 PM 40.6133 -111.9600 180° South 259 298 10,600 3,000 Climbing Salt Lake Center
Wed 01:55:08 PM 40.6150 -111.9575 49° Northeast 257 296 10,700 2,400 Climbing Salt Lake Center
Wed 01:56:00 PM 40.4325 -112.3306 191° South  Level Estimated
Wed 01:56:10 PM 40.5325 -111.9550 179° South 299 344 13,200  Level Salt Lake Center
Wed 01:57:00 PM 40.3350 -112.2600 151° Southeast  Level FlightAware Approximate
Wed 01:57:12 PM 40.4503 -111.9522 179° South 295 339 14,100  Level Salt Lake Center
Wed 01:58:14 PM 40.3561 -111.9464 177° South 346 398 14,100 -48 Level Salt Lake Center
Wed 01:59:16 PM 40.2594 -111.9406 177° South 348 400 14,000 480 Descending Salt Lake Center
Wed 02:00:19 PM 40.1439 -111.9603 187° South 352 405 15,100 1,824 Climbing Salt Lake Center
Wed 02:01:21 PM 40.0433 -111.9742 186° South 358 412 17,800 2,256 Climbing Salt Lake Center
Wed 02:02:24 PM 39.9403 -111.9897 187° South 374 430 19,800 1,872 Climbing Salt Lake Center
Wed 02:03:26 PM 39.8350 -112.0047 186° South 381 438 21,700 1,645 Climbing Salt Lake Center
Wed 02:04:28 PM 39.7239 -112.0214 187° South 402 463 23,200 1,839 Climbing Salt Lake Center
Wed 02:05:30 PM 39.5894 -112.0406 186° South 406 467 25,500 1,887 Climbing Salt Lake Center
Wed 02:06:32 PM 39.4756 -112.0569 186° South 411 473 27,100 1,355 Climbing Salt Lake Center
Wed 02:07:34 PM 39.3617 -112.0733 186° South 413 475 28,300 1,016 Climbing Salt Lake Center
Wed 02:08:36 PM 39.2414 -112.0914 187° South 431 496 29,200 823 Climbing Salt Lake Center
Wed 02:09:38 PM 39.1225 -112.1228 192° South 437 503 30,000 387 Climbing Salt Lake Center
Wed 02:10:40 PM 39.0092 -112.1925 206° Southwest 450 518 30,000  Level Salt Lake Center
Wed 02:11:42 PM 38.8772 -112.2903 210° Southwest 455 524 30,000 387 Level Salt Lake Center
Wed 02:12:44 PM 38.7689 -112.3717 210° Southwest 453 521 30,800 968 Climbing Salt Lake Center
Wed 02:13:46 PM 38.6600 -112.4497 209° Southwest 450 518 32,000 581 Climbing Salt Lake Center
Wed 02:14:48 PM 38.5533 -112.5261 209° Southwest 442 509 32,000 484 Level Salt Lake Center
Wed 02:15:50 PM 38.4464 -112.6036 210° Southwest 443 510 33,000 484 Climbing Salt Lake Center
Wed 02:16:52 PM 38.3394 -112.6794 209° Southwest 443 510 33,000  Level Salt Lake Center
Wed 02:17:54 PM 38.2114 -112.7706 209° Southwest 441 507 33,000  Level Salt Lake Center
Wed 02:18:56 PM 38.1039 -112.8467 209° Southwest 443 510 33,000 194 Level Salt Lake Center
Wed 02:19:58 PM 37.9975 -112.9228 209° Southwest 443 510 33,400 484 Climbing Salt Lake Center
Wed 02:21:00 PM 37.8911 -112.9969 209° Southwest 441 507 34,000 290 Climbing Salt Lake Center
Wed 02:22:02 PM 37.7864 -113.0714 209° Southwest 438 504 34,000  Level Salt Lake Center
Wed 02:23:04 PM 37.6747 -113.1847 219° Southwest 435 501 34,000  Level Salt Lake Center
Wed 02:23:41 PM 37.6206 -113.2417 220° Southwest 431 496 34,000  Level Los Angeles Center
Wed 02:24:43 PM 37.5275 -113.3350 219° Southwest 432 497 34,000  Level Los Angeles Center
Wed 02:25:45 PM 37.4350 -113.4286 219° Southwest 431 496 34,000  Level Los Angeles Center
Wed 02:26:48 PM 37.3425 -113.5222 219° Southwest 429 494 34,000  Level Los Angeles Center
Wed 02:27:50 PM 37.2322 -113.6353 219° Southwest 426 490 34,000  Level Los Angeles Center
Wed 02:28:52 PM 37.1386 -113.7286 218° Southwest 430 495 34,000  Level Los Angeles Center
Wed 02:29:54 PM 37.0456 -113.8228 219° Southwest 431 496 34,000  Level Los Angeles Center
Wed 02:30:56 PM 36.9397 -113.9289 219° Southwest 434 499 34,000  Level Los Angeles Center
Wed 02:31:58 PM 36.8447 -114.0233 219° Southwest 435 501 34,000  Level Los Angeles Center
Wed 02:33:01 PM 36.7433 -114.1250 219° Southwest 436 502 34,000  Level Los Angeles Center
Wed 02:34:03 PM 36.6475 -114.2200 219° Southwest 439 505 34,000  Level Los Angeles Center
Wed 02:35:05 PM 36.5597 -114.3075 219° Southwest 435 501 34,000  Level Los Angeles Center
Wed 02:36:07 PM 36.4644 -114.4017 218° Southwest 436 502 34,000  Level Los Angeles Center
Wed 02:37:09 PM 36.3514 -114.5156 219° Southwest 435 501 34,000  Level Los Angeles Center
Wed 02:38:11 PM 36.2547 -114.6089 218° Southwest 438 504 34,000  Level Los Angeles Center
Wed 02:39:14 PM 36.1581 -114.7036 218° Southwest 439 505 34,000  Level Los Angeles Center
Wed 02:40:16 PM 36.0619 -114.7981 218° Southwest 439 505 34,000  Level Los Angeles Center
Wed 02:41:18 PM 35.9697 -114.8969 221° Southwest 437 503 34,000  Level Los Angeles Center
Wed 02:42:20 PM 35.8881 -115.0089 228° Southwest 437 503 34,000  Level Los Angeles Center
Wed 02:43:22 PM 35.8219 -115.0992 228° Southwest 440 506 34,000  Level Los Angeles Center
Wed 02:44:24 PM 35.7064 -115.2553 228° Southwest 439 505 34,000  Level Los Angeles Center
Wed 02:45:27 PM 35.6239 -115.3672 228° Southwest 438 504 34,000  Level Los Angeles Center
Wed 02:46:29 PM 35.5400 -115.4789 227° Southwest 439 505 34,000  Level Los Angeles Center
Wed 02:47:31 PM 35.4597 -115.5889 228° Southwest 442 509 34,000  Level Los Angeles Center
Wed 02:48:33 PM 35.3756 -115.7003 227° Southwest 444 511 34,000 -242 Level Los Angeles Center
Wed 02:49:35 PM 35.2933 -115.8106 228° Southwest 441 507 33,500 -774 Descending Los Angeles Center
Wed 02:50:37 PM 35.1956 -115.9408 227° Southwest 435 501 32,400 -1,008 Descending Los Angeles Center
Wed 02:51:40 PM 35.1125 -116.0481 227° Southwest 435 501 31,400 -912 Descending Los Angeles Center
Wed 02:52:42 PM 35.0319 -116.1564 228° Southwest 432 497 30,500 -919 Descending Los Angeles Center
Wed 02:53:44 PM 34.9500 -116.2639 227° Southwest 431 496 29,500 -968 Descending Los Angeles Center
Wed 02:54:46 PM 34.8678 -116.3694 227° Southwest 431 496 28,500 -919 Descending Los Angeles Center
Wed 02:55:48 PM 34.7864 -116.4753 227° Southwest 428 493 27,600 -1,065 Descending Los Angeles Center
Wed 02:56:50 PM 34.6903 -116.5950 226° Southwest 416 479 26,300 -1,790 Descending Los Angeles Center
Wed 02:57:52 PM 34.6083 -116.6933 225° Southwest 414 476 23,900 -2,352 Descending Los Angeles Center
Wed 02:58:55 PM 34.5286 -116.7908 225° Southwest 408 470 21,400 -2,352 Descending Los Angeles Center
Wed 02:59:57 PM 34.4506 -116.8853 225° Southwest 398 458 19,000 -2,371 Descending Los Angeles Center
Wed 03:00:59 PM 34.3744 -116.9778 225° Southwest 390 449 16,500 -2,371 Descending Los Angeles Center
Wed 03:02:01 PM 34.3000 -117.0694 226° Southwest 381 438 14,100 -1,694 Descending Los Angeles Center
Wed 03:03:03 PM 34.2142 -117.1297 210° Southwest 345 397 13,000 -581 Descending Los Angeles Center
Wed 03:04:05 PM 34.1019 -117.1756 199° South 359 413 12,900  Descending Los Angeles Center
Wed 03:04:50 PM 34.0333 -117.2000 196° South 361 415 13,000 -945 Climbing Southern California TRACON
Wed 03:06:50 PM 33.8500 -117.3000 204° Southwest 353 406 10,300 -1,233 Descending Southern California TRACON
Wed 03:07:50 PM 33.8167 -117.4000 248° West 308 354 9,300 -1,050 Descending Southern California TRACON
Wed 03:08:50 PM 33.8000 -117.4833 256° West 294 338 8,200 -851 Descending Southern California TRACON
Wed 03:10:18 PM 33.7772 -117.6044 257° West 292 336 7,200 -793 Descending Los Angeles Center
Wed 03:10:51 PM 33.7500 -117.6833 247° West 289 333 6,600 -1,200 Descending Southern California TRACON
Wed 03:12:23 PM 33.7158 -117.8033 251° West 288 331 4,700 -1,130 Descending Los Angeles Center
Wed 03:13:25 PM 33.6894 -117.8856 249° West 277 319 3,700 -823 Descending Los Angeles Center
Wed 03:14:27 PM 33.6878 -117.9731 269° West 243 280 3,000 -532 Descending Los Angeles Center
Wed 03:15:29 PM 33.7172 -118.0283 303° West 215 247 2,600 -677 Descending Los Angeles Center
Wed 03:16:31 PM 33.7525 -118.0719 314° West 194 223 1,600 -794 Descending Los Angeles Center
Wed 03:17:45 PM 33.7825 -118.1089 314° West 173 199 800 -657 Descending Los Angeles Center
Wed 03:18:48 PM 33.8169 -118.1494 316° Northwest 150 173 100 -667 Descending Los Angeles Center
Wed 03:21:00 PM 33.8167 -118.1500 292° West  Level FlightAware Approximate

Login

Don't have an account? Register now (free) for customized features, flight alerts, and more!